createdAt,value
2023-05-10T00:01:23.467Z,10.30
2023-05-10T00:04:50.675Z,10.28
2023-05-10T00:08:17.626Z,10.26
2023-05-10T00:11:45.073Z,10.24
2023-05-10T00:15:16.089Z,10.21
2023-05-10T00:18:43.334Z,10.19
2023-05-10T00:22:10.250Z,10.18
2023-05-10T00:25:37.206Z,10.13
2023-05-10T00:29:04.582Z,10.12
2023-05-10T00:32:32.306Z,10.10
2023-05-10T00:36:00.874Z,10.06
2023-05-10T00:39:30.047Z,10.03
2023-05-10T00:43:02.433Z,10.01
2023-05-10T00:46:32.424Z,9.99
2023-05-10T00:49:59.395Z,9.95
2023-05-10T00:53:27.348Z,9.91
2023-05-10T00:56:54.232Z,9.89
2023-05-10T01:00:21.873Z,9.87
2023-05-10T01:03:49.341Z,9.83
2023-05-10T01:07:16.931Z,9.80
2023-05-10T01:10:44.372Z,9.76
2023-05-10T01:14:12.079Z,9.73
2023-05-10T01:17:40.988Z,9.70
2023-05-10T01:21:20.947Z,9.67
2023-05-10T01:25:22.924Z,9.64
2023-05-10T01:29:21.666Z,9.59
2023-05-10T01:32:56.509Z,9.54
2023-05-10T01:36:32.857Z,9.51
2023-05-10T01:40:10.633Z,9.47
2023-05-10T01:43:45.912Z,9.44
2023-05-10T01:47:16.739Z,9.40
2023-05-10T01:50:46.191Z,9.36
2023-05-10T01:54:16.168Z,9.33
2023-05-10T01:57:46.091Z,9.28
2023-05-10T02:01:14.951Z,9.25
2023-05-10T02:04:43.448Z,9.22
2023-05-10T02:08:12.143Z,9.19
2023-05-10T02:11:41.674Z,9.17
2023-05-10T02:15:13.077Z,9.15
2023-05-10T02:18:43.297Z,9.11
2023-05-10T02:22:12.725Z,9.08
2023-05-10T02:25:41.067Z,9.07
2023-05-10T02:29:09.778Z,9.04
2023-05-10T02:32:38.137Z,9.00
2023-05-10T02:36:06.664Z,8.97
2023-05-10T02:39:35.805Z,8.94
2023-05-10T02:43:07.272Z,8.93
2023-05-10T02:46:34.433Z,8.91
2023-05-10T02:50:02.647Z,8.89
2023-05-10T02:53:37.622Z,8.86
2023-05-10T02:57:07.172Z,8.84
2023-05-10T03:00:34.080Z,8.80
2023-05-10T03:04:00.772Z,8.78
2023-05-10T03:07:29.056Z,8.78
2023-05-10T03:11:07.891Z,8.77
2023-05-10T03:14:46.417Z,8.77
2023-05-10T03:18:17.733Z,8.76
2023-05-10T03:21:49.856Z,8.76
2023-05-10T03:25:19.245Z,8.77
2023-05-10T03:28:48.238Z,8.77
2023-05-10T03:32:15.309Z,8.76
2023-05-10T03:35:42.722Z,8.76
2023-05-10T03:39:10.275Z,8.75
2023-05-10T03:42:37.743Z,8.76
2023-05-10T03:46:05.684Z,8.76
2023-05-10T03:49:32.412Z,8.76
2023-05-10T03:52:59.635Z,8.79
2023-05-10T03:56:27.451Z,8.83
2023-05-10T03:59:54.889Z,8.86
2023-05-10T04:03:22.710Z,8.90
2023-05-10T04:06:49.582Z,8.94
2023-05-10T04:10:17.778Z,8.98
2023-05-10T04:13:45.324Z,9.02
2023-05-10T04:17:12.264Z,9.08
2023-05-10T04:20:39.037Z,9.14
2023-05-10T04:24:06.225Z,9.19
2023-05-10T04:27:33.660Z,9.24
2023-05-10T04:31:06.456Z,9.30
2023-05-10T04:34:35.424Z,9.37
2023-05-10T04:38:02.832Z,9.43
2023-05-10T04:41:29.968Z,9.49
2023-05-10T04:44:57.154Z,9.55
2023-05-10T04:48:23.819Z,9.64
2023-05-10T04:51:50.555Z,9.71
2023-05-10T04:55:17.731Z,9.78
2023-05-10T04:58:45.713Z,9.85
2023-05-10T05:02:13.006Z,9.93
2023-05-10T05:05:40.924Z,10.01
2023-05-10T05:09:08.098Z,10.09
2023-05-10T05:12:35.864Z,10.18
2023-05-10T05:16:04.649Z,10.26
2023-05-10T05:19:33.360Z,10.35
2023-05-10T05:23:00.291Z,10.43
2023-05-10T05:26:27.102Z,10.53
2023-05-10T05:29:55.112Z,10.61
2023-05-10T05:33:22.482Z,10.72
2023-05-10T05:36:50.222Z,10.83
2023-05-10T05:40:18.381Z,10.93
2023-05-10T05:43:45.957Z,11.04
2023-05-10T05:47:15.603Z,11.14
2023-05-10T05:50:42.920Z,11.26
2023-05-10T05:54:09.945Z,11.37
2023-05-10T05:57:41.077Z,11.48
2023-05-10T06:01:08.893Z,11.59
2023-05-10T06:04:36.633Z,11.70
2023-05-10T06:08:03.602Z,11.81
2023-05-10T06:11:33.327Z,11.94
2023-05-10T06:15:00.258Z,12.08
2023-05-10T06:18:28.324Z,12.21
2023-05-10T06:21:55.163Z,12.34
2023-05-10T06:25:22.534Z,12.48
2023-05-10T06:28:50.219Z,12.59
2023-05-10T06:32:18.457Z,12.72
2023-05-10T06:35:44.874Z,12.84
2023-05-10T06:39:12.914Z,12.98
2023-05-10T06:42:39.802Z,13.12
2023-05-10T06:46:06.876Z,13.25
2023-05-10T06:49:34.192Z,13.37
2023-05-10T06:53:01.256Z,13.50
2023-05-10T06:56:29.684Z,13.64
2023-05-10T07:00:00.588Z,13.79
2023-05-10T07:03:28.664Z,13.93
2023-05-10T07:06:56.033Z,14.08
2023-05-10T07:10:23.181Z,14.23
2023-05-10T07:13:50.259Z,14.37
2023-05-10T07:17:16.977Z,14.51
2023-05-10T07:20:43.902Z,14.66
2023-05-10T07:24:14.682Z,14.79
2023-05-10T07:27:41.703Z,14.93
2023-05-10T07:31:08.559Z,15.05
2023-05-10T07:34:35.228Z,15.16
2023-05-10T07:38:02.399Z,15.27
2023-05-10T07:41:29.230Z,15.38
2023-05-10T07:44:56.163Z,15.52
2023-05-10T07:48:22.746Z,15.67
2023-05-10T07:51:51.575Z,15.80
2023-05-10T07:55:18.328Z,15.91
2023-05-10T07:58:45.399Z,16.03
2023-05-10T08:02:12.603Z,16.16
2023-05-10T08:05:39.519Z,16.29
2023-05-10T08:09:06.327Z,16.38
2023-05-10T08:12:33.436Z,16.49
2023-05-10T08:16:00.659Z,16.64
2023-05-10T08:19:28.756Z,16.77
2023-05-10T08:22:56.381Z,16.89
2023-05-10T08:26:23.369Z,16.99
2023-05-10T08:29:50.757Z,17.06
2023-05-10T08:33:17.668Z,17.17
2023-05-10T08:36:45.279Z,17.31
2023-05-10T08:40:14.584Z,17.41
2023-05-10T08:43:42.741Z,17.52
2023-05-10T08:47:11.617Z,17.64
2023-05-10T08:50:40.664Z,17.72
2023-05-10T08:54:08.104Z,17.81
2023-05-10T08:57:36.014Z,17.88
2023-05-10T09:01:03.426Z,17.98
2023-05-10T09:04:30.985Z,18.07
2023-05-10T09:07:57.930Z,18.18
2023-05-10T09:11:26.346Z,18.30
2023-05-10T09:14:55.061Z,18.40
2023-05-10T09:18:22.558Z,18.46
2023-05-10T09:21:49.840Z,18.53
2023-05-10T09:25:19.398Z,18.63
2023-05-10T09:28:57.323Z,18.71
2023-05-10T09:32:24.237Z,18.75
2023-05-10T09:35:54.102Z,18.84
2023-05-10T09:39:21.212Z,18.92
2023-05-10T09:42:57.045Z,18.99
2023-05-10T09:46:24.209Z,19.10
2023-05-10T09:49:57.366Z,19.18
2023-05-10T09:53:24.242Z,19.26
2023-05-10T09:56:50.889Z,19.36
2023-05-10T10:00:21.877Z,19.44
2023-05-10T10:03:49.308Z,19.50
2023-05-10T10:07:16.290Z,19.64
2023-05-10T10:10:46.490Z,19.72
2023-05-10T10:14:14.158Z,19.78
2023-05-10T10:17:42.379Z,19.88
2023-05-10T10:21:10.015Z,19.97
2023-05-10T10:24:37.426Z,20.07
2023-05-10T10:28:19.252Z,20.19
2023-05-10T10:31:54.942Z,20.27
2023-05-10T10:35:21.746Z,20.32
2023-05-10T10:39:05.239Z,20.41
2023-05-10T10:42:51.053Z,20.50
2023-05-10T10:46:19.431Z,20.58
2023-05-10T10:49:53.864Z,20.65
2023-05-10T10:53:21.212Z,20.65
2023-05-10T10:57:15.896Z,20.72
2023-05-10T11:00:45.835Z,20.79
2023-05-10T11:04:26.822Z,20.81
2023-05-10T11:08:01.530Z,20.86
2023-05-10T11:11:28.191Z,20.87
2023-05-10T11:14:59.501Z,20.94
2023-05-10T11:18:30.717Z,21.03
2023-05-10T11:22:18.356Z,21.19
2023-05-10T11:25:47.924Z,21.28
2023-05-10T11:29:15.042Z,21.30
2023-05-10T11:32:44.257Z,21.28
2023-05-10T11:36:15.157Z,21.34
2023-05-10T11:39:48.585Z,21.44
2023-05-10T11:43:15.750Z,21.52
2023-05-10T11:46:42.878Z,21.56
2023-05-10T11:50:11.174Z,21.59
2023-05-10T11:53:37.923Z,21.67
2023-05-10T11:57:06.092Z,21.77
2023-05-10T12:00:34.280Z,21.81
2023-05-10T12:04:03.089Z,21.94
2023-05-10T12:07:29.993Z,22.09
2023-05-10T12:11:07.292Z,22.19
2023-05-10T12:14:38.158Z,22.37
2023-05-10T12:18:06.674Z,22.54
2023-05-10T12:21:33.869Z,22.71
2023-05-10T12:25:03.285Z,22.84
2023-05-10T12:28:34.621Z,22.95
2023-05-10T12:32:04.352Z,23.12
2023-05-10T12:35:34.491Z,23.26
2023-05-10T12:39:07.226Z,23.38
2023-05-10T12:42:33.490Z,23.57
2023-05-10T12:46:00.714Z,23.71
2023-05-10T12:49:27.565Z,23.81
2023-05-10T12:52:54.568Z,23.99
2023-05-10T12:56:21.596Z,24.13
2023-05-10T12:59:48.692Z,24.24
2023-05-10T13:03:16.902Z,24.23
2023-05-10T13:06:43.929Z,24.26
2023-05-10T13:10:12.557Z,24.33
2023-05-10T13:13:39.676Z,24.39
2023-05-10T13:17:06.514Z,24.46
2023-05-10T13:20:33.920Z,24.48
2023-05-10T13:24:01.458Z,24.56
2023-05-10T13:27:28.653Z,24.59
2023-05-10T13:30:56.872Z,24.61
2023-05-10T13:34:24.229Z,24.65
2023-05-10T13:37:50.950Z,24.75
2023-05-10T13:41:18.369Z,24.83
2023-05-10T13:44:45.889Z,24.98
2023-05-10T13:48:15.445Z,25.16
2023-05-10T13:51:45.162Z,25.38
2023-05-10T13:55:14.519Z,25.53
2023-05-10T13:58:41.763Z,25.67
2023-05-10T14:02:14.653Z,25.66
2023-05-10T14:05:42.962Z,25.67
2023-05-10T14:09:10.032Z,25.89
2023-05-10T14:12:36.995Z,25.93
2023-05-10T14:16:03.830Z,25.86
2023-05-10T14:19:33.828Z,25.85
2023-05-10T14:23:01.732Z,25.84
2023-05-10T14:26:28.803Z,25.88
2023-05-10T14:29:55.844Z,25.98
2023-05-10T14:33:23.150Z,26.06
2023-05-10T14:36:50.005Z,26.09
2023-05-10T14:40:18.270Z,25.98
2023-05-10T14:43:46.299Z,25.80
2023-05-10T14:47:13.344Z,25.74
2023-05-10T14:50:44.607Z,25.73
2023-05-10T14:54:11.472Z,25.68
2023-05-10T14:57:39.487Z,25.73
2023-05-10T15:01:06.922Z,25.75
2023-05-10T15:04:34.382Z,25.67
2023-05-10T15:08:01.583Z,25.60
2023-05-10T15:11:28.849Z,25.54
2023-05-10T15:14:57.127Z,25.37
2023-05-10T15:18:27.570Z,25.23
2023-05-10T15:21:54.539Z,25.09
2023-05-10T15:25:22.202Z,24.96
2023-05-10T15:28:49.338Z,24.84
2023-05-10T15:32:17.300Z,24.64
2023-05-10T15:35:44.022Z,24.44
2023-05-10T15:39:11.032Z,24.27
2023-05-10T15:42:38.314Z,24.15
2023-05-10T15:46:07.344Z,23.99
2023-05-10T15:49:37.571Z,23.79
2023-05-10T15:53:04.396Z,23.60
2023-05-10T15:56:31.586Z,23.38
2023-05-10T15:59:58.768Z,23.16
2023-05-10T16:03:25.384Z,22.88
2023-05-10T16:06:52.648Z,22.59
2023-05-10T16:10:20.393Z,22.27
2023-05-10T16:13:47.767Z,21.98
2023-05-10T16:17:17.165Z,21.73
2023-05-10T16:20:44.370Z,21.53
2023-05-10T16:24:11.493Z,21.30
2023-05-10T16:27:38.461Z,21.10
2023-05-10T16:31:05.684Z,20.96
2023-05-10T16:34:32.330Z,20.90
2023-05-10T16:37:59.777Z,20.76
2023-05-10T16:41:26.743Z,20.58
2023-05-10T16:44:53.597Z,20.42
2023-05-10T16:48:22.595Z,20.28
2023-05-10T16:51:49.787Z,20.14
2023-05-10T16:55:16.723Z,20.04
2023-05-10T16:58:44.018Z,19.95
2023-05-10T17:02:14.584Z,19.84
2023-05-10T17:05:43.771Z,19.70
2023-05-10T17:09:10.802Z,19.60
2023-05-10T17:12:37.628Z,19.49
2023-05-10T17:16:05.367Z,19.38
2023-05-10T17:19:33.369Z,19.24
2023-05-10T17:23:03.508Z,19.15
2023-05-10T17:26:34.828Z,19.07
2023-05-10T17:30:02.455Z,19.01
2023-05-10T17:33:29.156Z,18.95
2023-05-10T17:36:57.634Z,18.89
2023-05-10T17:40:25.319Z,18.80
2023-05-10T17:43:52.147Z,18.72
2023-05-10T17:47:19.263Z,18.63
2023-05-10T17:50:46.835Z,18.56
2023-05-10T17:54:16.213Z,18.47
2023-05-10T17:57:43.792Z,18.40
2023-05-10T18:01:10.961Z,18.32
2023-05-10T18:04:40.999Z,18.22
2023-05-10T18:08:08.917Z,18.12
2023-05-10T18:11:41.869Z,18.02
2023-05-10T18:15:10.338Z,17.92
2023-05-10T18:18:37.405Z,17.83
2023-05-10T18:22:06.070Z,17.73
2023-05-10T18:25:34.533Z,17.65
2023-05-10T18:29:01.887Z,17.56
2023-05-10T18:32:31.646Z,17.47
2023-05-10T18:36:02.786Z,17.37
2023-05-10T18:39:30.614Z,17.29
2023-05-10T18:43:00.546Z,17.21
2023-05-10T18:46:32.314Z,17.14
2023-05-10T18:50:00.466Z,17.05
2023-05-10T18:53:28.363Z,16.97
2023-05-10T18:56:58.059Z,16.88
2023-05-10T19:00:26.954Z,16.78
2023-05-10T19:03:54.983Z,16.69
2023-05-10T19:07:22.446Z,16.57
2023-05-10T19:10:53.837Z,16.49
2023-05-10T19:14:23.176Z,16.41
2023-05-10T19:18:09.052Z,16.30
2023-05-10T19:21:39.390Z,16.21
2023-05-10T19:25:13.589Z,16.14
2023-05-10T19:28:42.676Z,16.07
2023-05-10T19:32:15.187Z,15.96
2023-05-10T19:35:53.916Z,15.89
2023-05-10T19:39:28.070Z,15.82
2023-05-10T19:42:58.605Z,15.74
2023-05-10T19:46:27.630Z,15.65
2023-05-10T19:49:57.911Z,15.56
2023-05-10T19:53:27.537Z,15.48
2023-05-10T19:56:57.363Z,15.41
2023-05-10T20:00:27.999Z,15.35
2023-05-10T20:04:07.152Z,15.28
2023-05-10T20:07:37.382Z,15.20
2023-05-10T20:11:07.173Z,15.10
2023-05-10T20:14:35.110Z,15.05
2023-05-10T20:18:07.735Z,15.00
2023-05-10T20:21:36.323Z,14.97
2023-05-10T20:25:03.887Z,14.90
2023-05-10T20:28:32.234Z,14.86
2023-05-10T20:32:01.143Z,14.80
2023-05-10T20:35:28.545Z,14.74
2023-05-10T20:38:58.040Z,14.70
2023-05-10T20:42:28.232Z,14.64
2023-05-10T20:45:56.205Z,14.59
2023-05-10T20:49:24.994Z,14.54
2023-05-10T20:53:06.526Z,14.49
2023-05-10T20:56:36.132Z,14.44
2023-05-10T21:00:03.690Z,14.39
2023-05-10T21:03:31.546Z,14.34
2023-05-10T21:06:58.816Z,14.30
2023-05-10T21:10:28.577Z,14.26
2023-05-10T21:13:55.625Z,14.20
2023-05-10T21:17:23.257Z,14.15
2023-05-10T21:20:50.988Z,14.11
2023-05-10T21:24:17.838Z,14.05
2023-05-10T21:27:45.028Z,13.99
2023-05-10T21:31:12.738Z,13.94
2023-05-10T21:34:42.217Z,13.88
2023-05-10T21:38:09.368Z,13.83
2023-05-10T21:41:36.277Z,13.77
2023-05-10T21:45:03.594Z,13.73
2023-05-10T21:48:31.646Z,13.69
2023-05-10T21:51:59.597Z,13.65
2023-05-10T21:55:26.200Z,13.61
2023-05-10T21:58:53.300Z,13.58
2023-05-10T22:02:26.157Z,13.53
2023-05-10T22:05:53.355Z,13.49
2023-05-10T22:09:25.575Z,13.43
2023-05-10T22:12:53.383Z,13.39
2023-05-10T22:16:20.868Z,13.35
2023-05-10T22:19:48.284Z,13.30
2023-05-10T22:23:15.888Z,13.24
2023-05-10T22:26:43.561Z,13.20
2023-05-10T22:30:13.180Z,13.15
2023-05-10T22:33:47.699Z,13.10
2023-05-10T22:37:18.120Z,13.06
2023-05-10T22:40:46.521Z,13.01
2023-05-10T22:44:13.946Z,12.95
2023-05-10T22:47:40.912Z,12.91
2023-05-10T22:51:07.898Z,12.89
2023-05-10T22:54:36.258Z,12.84
2023-05-10T22:58:03.957Z,12.79
2023-05-10T23:01:32.283Z,12.75
2023-05-10T23:04:59.944Z,12.71
2023-05-10T23:08:28.518Z,12.67
2023-05-10T23:12:01.396Z,12.65
2023-05-10T23:15:30.030Z,12.60
2023-05-10T23:18:58.273Z,12.57
2023-05-10T23:22:25.548Z,12.55
2023-05-10T23:25:53.196Z,12.51
2023-05-10T23:29:19.733Z,12.46
2023-05-10T23:32:46.866Z,12.45
2023-05-10T23:36:14.479Z,12.41
2023-05-10T23:39:43.447Z,12.36
2023-05-10T23:43:11.492Z,12.32
2023-05-10T23:46:39.160Z,12.28
2023-05-10T23:50:09.381Z,12.23
2023-05-10T23:53:37.989Z,12.18
2023-05-10T23:57:07.448Z,12.13
